KDRA/DRA METAR and TAF weather

Enter ICAO airport designator
Station Type Date Time Source
KDRA METAR 2020/01/21 20:53 UTC NOAA

KDRA 212053Z AUTO 22009KT 10SM CLR 12/M01 A3004 RMK AO2 SLP156 T01221011 58010


Station Type Date Time Source
KDRA Decoded METAR 2020/01/21 20:53 UTC NOAA

DESERT ROCK AIRPORT, NV, United States (KDRA) 36-38N 116-02W 1006M
Jan 21, 2020 - 03:53 PM EST / 2020.01.21 2053 UTC
Wind: from the SW (220 degrees) at 10 MPH (9 KT):0
Visibility: 10 mile(s):0
Sky conditions: clear
Temperature: 54.0 F (12.2 C)
Dew Point: 30.0 F (-1.1 C)
Relative Humidity: 39%
Pressure (altimeter): 30.04 in. Hg (1017 hPa)
Pressure tendency: 0.03 inches (1.0 hPa) lower than three hours ago
ob: KDRA 212053Z AUTO 22009KT 10SM CLR 12/M01 A3004 RMK AO2 SLP156 T01221011 58010
cycle: 21

Station Type Date Time Source
KDRA TAF 2011/12/07 06:36 UTC NOAA

TAF KDRA 070532Z 0706/0806 VRB04KT P6SM SKC

Example: see airport list